Time;durP1;ratioP1;P1;durP2;ratioP2;P2;SDS_P1;SDS_P2;PMS_P1;PMS_P2;Temp;Humidity;BMP_temperature;BMP_pressure;BME280_temperature;BME280_humidity;BME280_pressure;Samples;Min_cycle;Max_cycle;Signal;HPM_P1;HPM_P2
2021/06/12 00:00:07;;;;;;;4.57;3.30;;;;;;;29.40;35.21;96934.94;4945971;28;20030;-35
2021/06/12 00:02:32;;;;;;;5.53;3.47;;;;;;;29.40;35.13;96940.22;4951676;28;20141;-35
2021/06/12 00:04:58;;;;;;;6.88;3.65;;;;;;;29.40;35.26;96940.22;4946073;28;20046;-40
2021/06/12 00:07:25;;;;;;;5.13;3.40;;;;;;;29.41;35.28;96939.25;4939098;28;20066;-41
2021/06/12 00:09:51;;;;;;;4.10;3.40;;;;;;;29.41;35.22;96944.53;4949286;28;20034;-39
2021/06/12 00:12:17;;;;;;;4.78;3.47;;;;;;;29.38;35.35;96928.91;4953058;28;20023;-38
2021/06/12 00:14:42;;;;;;;4.93;3.25;;;;;;;29.42;35.17;96929.56;4954827;28;20027;-37
2021/06/12 00:17:08;;;;;;;6.30;3.67;;;;;;;29.42;34.89;96933.06;4948296;28;20552;-38
2021/06/12 00:19:35;;;;;;;4.13;3.40;;;;;;;29.42;35.20;96935.69;4956299;28;20035;-42
2021/06/12 00:22:01;;;;;;;5.00;3.38;;;;;;;29.42;35.01;96938.34;4944855;28;20038;-38
2021/06/12 00:24:26;;;;;;;3.03;2.72;;;;;;;29.42;34.96;96934.84;4940101;28;20024;-41
2021/06/12 00:26:52;;;;;;;4.70;3.33;;;;;;;29.42;35.16;96935.69;4947445;28;20051;-34
2021/06/12 00:29:17;;;;;;;4.10;3.20;;;;;;;29.41;35.00;96931.34;4943730;28;20271;-39
2021/06/12 00:31:42;;;;;;;3.63;3.33;;;;;;;29.40;35.01;96934.94;4949086;28;20038;-37
2021/06/12 00:34:08;;;;;;;4.15;3.00;;;;;;;29.41;35.45;96931.34;4938013;28;20064;-41
2021/06/12 00:36:33;;;;;;;5.00;3.20;;;;;;;29.40;35.22;96928.81;4950319;28;20035;-38
2021/06/12 00:38:59;;;;;;;8.13;3.30;;;;;;;29.40;35.17;96927.00;4947823;28;20661;-39
2021/06/12 00:41:24;;;;;;;4.65;3.20;;;;;;;29.40;34.97;96921.72;4950123;28;20027;-36
2021/06/12 00:43:50;;;;;;;5.68;3.55;;;;;;;29.40;34.79;96921.72;4956249;28;20031;-39
2021/06/12 00:46:15;;;;;;;4.72;3.50;;;;;;;29.40;35.21;96913.81;4958391;28;20031;-39
2021/06/12 00:48:45;;;;;;;5.15;3.35;;;;;;;29.40;35.10;96915.63;4931281;28;20029;-38
2021/06/12 00:51:10;;;;;;;4.22;3.22;;;;;;;29.40;34.95;96911.16;4951789;28;20026;-38
2021/06/12 00:53:41;;;;;;;3.42;3.13;;;;;;;29.40;34.90;96921.72;4934584;28;20046;-35
2021/06/12 00:56:14;;;;;;;3.28;2.97;;;;;;;29.38;35.04;96907.81;4952178;28;20787;-38
2021/06/12 00:58:44;;;;;;;3.70;2.90;;;;;;;29.40;35.01;96911.16;4974119;28;20035;-38
2021/06/12 01:01:10;;;;;;;4.57;2.80;;;;;;;29.39;34.92;96904.22;4949966;28;20303;-39
2021/06/12 01:03:36;;;;;;;4.07;3.05;;;;;;;29.38;35.12;96902.53;4949704;28;20058;-36
2021/06/12 01:06:01;;;;;;;3.97;3.05;;;;;;;29.39;35.21;96904.22;4951659;28;20126;-40
2021/06/12 01:08:26;;;;;;;6.13;3.10;;;;;;;29.38;35.22;96905.16;4950441;28;20027;-38
2021/06/12 01:10:52;;;;;;;3.78;3.10;;;;;;;29.38;35.03;96902.53;4949933;28;20030;-35
2021/06/12 01:13:28;;;;;;;3.22;2.92;;;;;;;29.38;35.00;96907.81;4948398;28;20042;-40
2021/06/12 01:16:00;;;;;;;6.88;3.15;;;;;;;29.39;35.05;96908.63;4978259;28;20061;-36
2021/06/12 01:18:32;;;;;;;3.72;3.38;;;;;;;29.38;35.07;96899.03;4946989;28;20061;-37
2021/06/12 01:21:09;;;;;;;7.20;2.95;;;;;;;29.38;35.17;96902.53;4951193;28;20081;-40
2021/06/12 01:23:53;;;;;;;3.47;2.95;;;;;;;29.36;34.95;96893.84;4933854;28;20031;-36
2021/06/12 01:26:43;;;;;;;4.07;3.00;;;;;;;29.37;35.16;96895.53;4954738;28;20557;-35
2021/06/12 01:29:21;;;;;;;7.40;3.10;;;;;;;29.37;34.94;96898.16;4946950;28;20163;-41
2021/06/12 01:31:48;;;;;;;3.33;2.95;;;;;;;29.37;35.12;96895.53;4944215;28;20790;-40
2021/06/12 01:34:13;;;;;;;4.22;3.00;;;;;;;29.37;35.17;96897.34;4963360;28;20026;-39
2021/06/12 01:36:38;;;;;;;3.22;2.90;;;;;;;29.35;34.99;96900.06;4970810;28;20026;-33
2021/06/12 01:39:04;;;;;;;3.15;2.85;;;;;;;29.35;35.25;96900.06;4934281;28;20030;-37
2021/06/12 01:41:30;;;;;;;3.45;3.15;;;;;;;29.36;35.09;96893.84;4951126;28;20772;-41
2021/06/12 01:43:55;;;;;;;3.70;2.88;;;;;;;29.35;34.82;96886.88;4938160;28;20234;-40
2021/06/12 01:46:21;;;;;;;3.40;3.00;;;;;;;29.35;35.08;96897.44;4933627;28;20061;-39
2021/06/12 01:48:46;;;;;;;3.50;2.80;;;;;;;29.36;35.03;96887.72;4963432;28;20484;-42
2021/06/12 01:51:12;;;;;;;3.15;2.85;;;;;;;29.35;34.76;96892.16;4981475;28;20038;-39
2021/06/12 01:53:38;;;;;;;5.22;3.10;;;;;;;29.35;34.87;96897.44;4938364;28;20109;-40
2021/06/12 01:56:08;;;;;;;3.30;2.70;;;;;;;29.34;34.97;96895.75;4959389;28;20034;-38
2021/06/12 01:58:39;;;;;;;5.18;3.10;;;;;;;29.34;35.07;96882.56;4961437;28;20552;-39
2021/06/12 02:01:05;;;;;;;4.25;3.20;;;;;;;29.34;35.06;96890.47;4939338;28;20039;-42
2021/06/12 02:03:33;;;;;;;3.78;2.90;;;;;;;29.33;35.01;96891.44;4953618;28;20038;-37
2021/06/12 02:05:59;;;;;;;3.88;3.00;;;;;;;29.33;34.89;96894.06;4971569;28;20461;-40
2021/06/12 02:08:24;;;;;;;3.67;2.88;;;;;;;29.33;34.80;96886.16;4957458;28;20041;-39
2021/06/12 02:10:50;;;;;;;6.35;2.85;;;;;;;29.33;35.01;96891.44;4940956;28;20026;-37
2021/06/12 02:13:16;;;;;;;4.20;2.80;;;;;;;29.32;34.96;96880.00;4953448;28;20271;-36
2021/06/12 02:15:43;;;;;;;4.68;2.83;;;;;;;29.33;34.88;96888.78;4979259;28;20030;-42
2021/06/12 02:18:09;;;;;;;3.53;2.72;;;;;;;29.33;35.00;96888.78;4936544;28;20317;-38
2021/06/12 02:20:35;;;;;;;3.50;2.85;;;;;;;29.30;34.82;96886.34;4948665;28;20359;-39
2021/06/12 02:23:02;;;;;;;4.60;2.90;;;;;;;29.32;35.02;96881.78;4945355;28;20929;-37
2021/06/12 02:25:27;;;;;;;4.30;2.90;;;;;;;29.33;35.02;96883.50;4936869;28;20026;-37
2021/06/12 02:27:58;;;;;;;4.25;3.00;;;;;;;29.33;34.87;96888.78;4936114;28;20129;-33
2021/06/12 02:30:28;;;;;;;3.85;2.80;;;;;;;29.32;35.04;96887.06;4965849;28;20031;-38
2021/06/12 02:33:05;;;;;;;6.28;3.08;;;;;;;29.32;35.00;96884.44;4942592;28;20545;-37
2021/06/12 02:35:31;;;;;;;4.10;3.03;;;;;;;29.31;34.86;96882.75;4945451;28;20441;-37
2021/06/12 02:37:56;;;;;;;4.75;2.75;;;;;;;29.31;34.82;96880.09;4981756;28;20026;-37
2021/06/12 02:40:22;;;;;;;6.13;2.95;;;;;;;29.32;34.69;96882.66;4978196;28;20138;-39
2021/06/12 02:42:47;;;;;;;3.78;3.10;;;;;;;29.32;34.71;96879.16;4936498;28;20097;-32
2021/06/12 02:45:13;;;;;;;3.17;2.88;;;;;;;29.30;34.90;96873.97;4942891;28;20090;-38
2021/06/12 02:47:53;;;;;;;4.93;2.92;;;;;;;29.30;34.70;96884.53;4943438;28;20497;-41
2021/06/12 02:50:19;;;;;;;4.20;2.70;;;;;;;29.31;34.55;96885.38;4941714;28;20030;-38
2021/06/12 02:52:45;;;;;;;3.67;2.85;;;;;;;29.30;34.72;96886.34;4925775;28;20031;-36
2021/06/12 02:55:11;;;;;;;4.30;3.08;;;;;;;29.28;35.00;96888.22;4939556;28;20452;-36
2021/06/12 02:57:37;;;;;;;4.88;2.92;;;;;;;29.28;35.00;96889.06;4952546;28;20035;-37
2021/06/12 03:00:04;;;;;;;3.85;2.70;;;;;;;29.28;34.83;96890.84;4973668;28;20089;-41
2021/06/12 03:02:31;;;;;;;4.05;2.90;;;;;;;29.28;34.83;96885.59;4949907;28;20467;-39
2021/06/12 03:04:56;;;;;;;3.85;2.83;;;;;;;29.27;34.86;96886.53;4973079;28;20054;-34
2021/06/12 03:07:21;;;;;;;3.85;2.80;;;;;;;29.28;34.70;96896.13;4933845;28;20720;-36
2021/06/12 03:09:47;;;;;;;3.67;2.70;;;;;;;29.28;34.72;96890.84;4938611;28;20041;-35
2021/06/12 03:12:12;;;;;;;4.05;2.83;;;;;;;29.28;34.90;96906.69;4933412;28;20220;-36
2021/06/12 03:14:39;;;;;;;3.50;2.88;;;;;;;29.28;34.81;96902.28;4938485;28;20026;-38
2021/06/12 03:17:06;;;;;;;5.60;2.72;;;;;;;29.27;34.65;96905.00;4948873;28;20465;-38
2021/06/12 03:19:31;;;;;;;3.25;2.75;;;;;;;29.27;34.72;96903.22;4942869;28;20042;-33
2021/06/12 03:21:56;;;;;;;3.60;2.83;;;;;;;29.27;34.82;96905.00;4953107;28;20035;-41
2021/06/12 03:24:22;;;;;;;4.60;2.70;;;;;;;29.28;34.72;96911.97;4949411;28;20224;-36
2021/06/12 03:26:47;;;;;;;3.85;2.65;;;;;;;29.27;34.71;96899.72;4934953;28;20553;-34
2021/06/12 03:29:13;;;;;;;6.03;2.80;;;;;;;29.27;34.85;96899.72;4958702;28;20038;-40
2021/06/12 03:31:38;;;;;;;5.38;3.00;;;;;;;29.27;34.59;96902.38;4954191;28;20034;-39
2021/06/12 03:34:04;;;;;;;3.90;2.90;;;;;;;29.26;34.93;96905.97;4971175;28;20843;-38
2021/06/12 03:36:29;;;;;;;4.05;2.70;;;;;;;29.26;34.52;96898.03;4934982;28;20023;-39
2021/06/12 03:38:54;;;;;;;5.13;2.83;;;;;;;29.25;34.59;96901.63;4957154;28;20567;-38
2021/06/12 03:41:20;;;;;;;3.83;2.83;;;;;;;29.25;34.61;96901.63;4948847;28;20439;-38
2021/06/12 03:43:46;;;;;;;2.70;2.50;;;;;;;29.26;34.78;96900.69;4934242;28;20121;-38
2021/06/12 03:46:13;;;;;;;3.72;2.60;;;;;;;29.25;34.62;96897.19;4943490;28;20071;-38
2021/06/12 03:48:39;;;;;;;3.05;2.80;;;;;;;29.25;34.79;96902.47;4953092;28;20045;-42
2021/06/12 03:51:04;;;;;;;2.80;2.55;;;;;;;29.23;34.79;96899.09;4974715;28;20026;-39
2021/06/12 03:53:30;;;;;;;3.35;2.60;;;;;;;29.25;34.45;96904.28;4944040;28;20049;-38
2021/06/12 03:55:58;;;;;;;3.95;2.80;;;;;;;29.25;34.48;96906.91;4958727;28;20520;-44
2021/06/12 03:58:23;;;;;;;5.35;2.78;;;;;;;29.23;34.75;96904.38;4952036;28;20053;-42
2021/06/12 04:00:49;;;;;;;3.90;2.70;;;;;;;29.24;34.81;96915.75;4953634;28;20034;-43
2021/06/12 04:03:16;;;;;;;3.70;2.70;;;;;;;29.24;34.48;96911.34;4944510;28;20054;-41
2021/06/12 04:05:42;;;;;;;3.00;2.70;;;;;;;29.24;34.49;96910.47;4942944;28;20927;-40
2021/06/12 04:08:07;;;;;;;4.53;2.75;;;;;;;29.23;34.81;96908.78;4953559;28;20330;-36
2021/06/12 04:10:32;;;;;;;4.25;3.00;;;;;;;29.23;34.65;96911.44;4948201;28;20397;-39
2021/06/12 04:12:58;;;;;;;4.22;2.63;;;;;;;29.18;34.53;96896.75;4948409;28;20414;-35
2021/06/12 04:15:27;;;;;;;5.88;2.95;;;;;;;29.21;34.75;96901.84;4974913;28;20042;-35
2021/06/12 04:17:59;;;;;;;3.25;2.88;;;;;;;29.22;34.85;96910.59;4949080;28;20608;-37
2021/06/12 04:20:24;;;;;;;4.15;2.90;;;;;;;29.18;34.60;96907.31;4937414;28;20653;-35
2021/06/12 04:22:50;;;;;;;4.10;2.95;;;;;;;29.23;34.72;96919.34;4952231;28;20117;-36
2021/06/12 04:25:15;;;;;;;4.05;2.70;;;;;;;29.22;34.81;96923.81;4956881;28;20035;-34
2021/06/12 04:27:41;;;;;;;3.30;2.67;;;;;;;29.21;34.67;96922.94;4952382;28;20105;-42
2021/06/12 04:30:07;;;;;;;2.92;2.65;;;;;;;29.20;34.88;96921.25;4947201;28;20030;-35
2021/06/12 04:32:32;;;;;;;4.53;2.90;;;;;;;29.20;34.84;96921.25;4949081;28;20133;-36
2021/06/12 04:34:57;;;;;;;3.55;2.50;;;;;;;29.21;34.42;96919.44;4959282;28;20038;-38
2021/06/12 04:37:23;;;;;;;3.65;2.92;;;;;;;29.20;34.85;96915.97;4943105;28;20430;-40
2021/06/12 04:39:48;;;;;;;10.60;2.67;;;;;;;29.21;34.73;96922.09;4944157;28;21165;-39
2021/06/12 04:42:14;;;;;;;3.50;3.03;;;;;;;29.20;34.84;96926.53;4942547;28;20041;-34
2021/06/12 04:44:39;;;;;;;4.82;2.70;;;;;;;29.20;34.78;96931.81;4945668;28;20030;-40
2021/06/12 04:47:05;;;;;;;6.28;2.80;;;;;;;29.22;35.18;96926.44;4949425;28;20069;-38
2021/06/12 04:49:30;;;;;;;3.47;2.67;;;;;;;29.21;35.20;96922.94;4973467;28;20045;-38
2021/06/12 04:51:55;;;;;;;3.13;2.63;;;;;;;29.20;35.21;96921.25;4955795;28;20037;-35
2021/06/12 04:54:21;;;;;;;5.18;2.85;;;;;;;29.20;34.94;96915.97;4947972;28;20031;-39
2021/06/12 04:56:46;;;;;;;3.20;2.80;;;;;;;29.21;35.05;96920.31;4950891;28;20030;-37
2021/06/12 04:59:11;;;;;;;4.22;2.72;;;;;;;29.21;35.00;96922.09;4950177;28;20054;-32
2021/06/12 05:01:37;;;;;;;5.05;2.90;;;;;;;29.21;34.86;96917.66;4946743;28;21378;-34
2021/06/12 05:04:02;;;;;;;4.80;2.67;;;;;;;29.21;34.79;96922.94;4942830;28;20041;-40
2021/06/12 05:06:28;;;;;;;3.70;2.85;;;;;;;29.20;34.87;96920.41;4952280;28;20039;-40
2021/06/12 05:08:53;;;;;;;3.65;2.97;;;;;;;29.20;34.78;96926.53;4949044;28;20769;-36
2021/06/12 05:11:19;;;;;;;4.75;2.97;;;;;;;29.21;34.87;96927.38;4944568;28;20569;-36
2021/06/12 05:13:44;;;;;;;4.07;3.15;;;;;;;29.23;34.87;96927.28;4952197;28;20116;-38
2021/06/12 05:16:10;;;;;;;3.78;2.92;;;;;;;29.21;34.67;96925.59;4942801;28;20354;-36
2021/06/12 05:18:44;;;;;;;4.38;2.97;;;;;;;29.24;35.11;96926.31;4936512;28;20026;-40
2021/06/12 05:21:09;;;;;;;4.07;3.03;;;;;;;29.23;34.83;96930.78;4946956;28;20043;-34
2021/06/12 05:23:35;;;;;;;4.75;3.03;;;;;;;29.23;34.85;96930.78;4955241;28;20030;-39
2021/06/12 05:26:02;;;;;;;3.50;2.97;;;;;;;29.23;35.06;96930.78;4953540;28;20026;-40
2021/06/12 05:28:28;;;;;;;3.55;3.10;;;;;;;29.24;35.19;96931.59;4949357;28;20038;-40
2021/06/12 05:30:53;;;;;;;3.95;3.00;;;;;;;29.24;34.93;96926.31;4946983;28;20038;-37
2021/06/12 05:33:19;;;;;;;4.03;3.10;;;;;;;29.23;34.81;96929.91;4944705;28;22751;-37
2021/06/12 05:35:44;;;;;;;6.10;2.90;;;;;;;29.25;35.12;96928.03;4948713;28;20018;-36
2021/06/12 05:38:10;;;;;;;3.65;3.00;;;;;;;29.24;34.91;96929.81;4950645;28;20030;-35
2021/06/12 05:40:35;;;;;;;3.55;3.15;;;;;;;29.26;35.02;96927.09;4955179;28;20035;-39
2021/06/12 05:43:00;;;;;;;4.53;3.20;;;;;;;29.25;35.01;96934.13;4950669;28;20235;-35
2021/06/12 05:45:26;;;;;;;4.57;3.15;;;;;;;29.25;34.92;96923.59;4954237;28;20037;-39
2021/06/12 05:47:51;;;;;;;3.83;3.03;;;;;;;29.25;34.85;96923.59;4947483;28;20046;-36
2021/06/12 05:50:17;;;;;;;3.28;2.72;;;;;;;29.27;35.10;96924.34;4945160;28;20037;-39
2021/06/12 05:52:42;;;;;;;4.65;2.90;;;;;;;29.25;35.06;96926.22;4945406;28;20169;-34
2021/06/12 05:55:08;;;;;;;5.55;3.00;;;;;;;29.27;35.05;96934.03;4953793;28;20030;-40
2021/06/12 05:57:33;;;;;;;3.47;3.13;;;;;;;29.27;34.90;96926.13;4955347;28;20049;-41
2021/06/12 05:59:59;;;;;;;6.07;3.35;;;;;;;29.28;35.11;96930.44;4941458;28;20058;-35
2021/06/12 06:02:24;;;;;;;4.65;2.95;;;;;;;29.28;35.04;96928.66;4948568;28;20034;-38
2021/06/12 06:04:50;;;;;;;3.28;2.80;;;;;;;29.29;35.00;96924.25;4951575;28;20592;-37
2021/06/12 06:07:17;;;;;;;5.53;3.05;;;;;;;29.29;35.01;96929.53;4943932;28;20058;-34
2021/06/12 06:09:42;;;;;;;3.72;2.60;;;;;;;29.30;34.91;96931.22;4958974;28;20023;-38
2021/06/12 06:12:08;;;;;;;3.55;2.55;;;;;;;29.31;34.87;96922.34;4950650;28;20330;-38
2021/06/12 06:14:34;;;;;;;3.42;3.03;;;;;;;29.31;35.08;96922.34;4942117;28;20070;-39
2021/06/12 06:16:59;;;;;;;4.18;3.00;;;;;;;29.31;35.20;96911.78;4945794;28;20034;-38
2021/06/12 06:19:25;;;;;;;2.88;2.50;;;;;;;29.31;35.09;96917.06;4949954;28;20031;-42
2021/06/12 06:21:50;;;;;;;5.80;2.80;;;;;;;29.32;35.06;96918.75;4945148;28;20174;-38
2021/06/12 06:24:15;;;;;;;4.65;2.50;;;;;;;29.32;35.30;96916.97;4940911;28;20690;-33
2021/06/12 06:26:41;;;;;;;3.10;2.80;;;;;;;29.34;35.33;96924.78;4977227;28;21144;-35
2021/06/12 06:29:06;;;;;;;3.67;2.63;;;;;;;29.36;35.24;96924.69;4933939;28;20292;-34
2021/06/12 06:31:32;;;;;;;3.60;2.50;;;;;;;29.35;35.32;96918.56;4933679;28;20043;-34
2021/06/12 06:33:57;;;;;;;3.72;2.60;;;;;;;29.37;35.29;96921.09;4939028;28;20031;-40
2021/06/12 06:36:22;;;;;;;2.67;2.30;;;;;;;29.37;35.20;96919.28;4934502;28;20123;-40
2021/06/12 06:38:48;;;;;;;3.90;2.70;;;;;;;29.39;35.37;96920.03;4941305;28;20030;-38
2021/06/12 06:41:14;;;;;;;5.97;2.80;;;;;;;29.39;35.08;96921.81;4951200;28;20038;-38
2021/06/12 06:43:39;;;;;;;2.90;2.47;;;;;;;29.39;35.46;96912.13;4946865;28;20030;-41
2021/06/12 06:46:04;;;;;;;3.03;2.70;;;;;;;29.41;35.25;96926.06;4936303;28;20038;-40
2021/06/12 06:48:30;;;;;;;4.10;2.33;;;;;;;29.41;35.21;96920.78;4950597;28;20155;-41
2021/06/12 06:50:56;;;;;;;6.75;2.60;;;;;;;29.42;35.37;96919.84;4937527;28;20034;-40
2021/06/12 06:53:21;;;;;;;5.88;2.60;;;;;;;29.44;35.57;96928.50;4941443;28;20978;-36
2021/06/12 06:55:47;;;;;;;9.45;2.72;;;;;;;29.43;35.36;96924.19;4936575;28;20125;-34
2021/06/12 06:58:12;;;;;;;10.20;2.70;;;;;;;29.45;35.34;96930.19;4948750;28;20042;-36
2021/06/12 07:00:38;;;;;;;8.35;2.75;;;;;;;29.46;35.59;96928.41;4934137;28;20126;-43
2021/06/12 07:03:04;;;;;;;7.68;2.95;;;;;;;29.47;35.62;96930.09;4929470;28;20098;-41
2021/06/12 07:05:29;;;;;;;11.07;4.78;;;;;;;29.46;35.77;96931.91;4950993;28;20046;-37
2021/06/12 07:07:55;;;;;;;10.50;4.55;;;;;;;29.46;35.61;96931.91;4904423;28;20031;-39
2021/06/12 07:10:20;;;;;;;20.25;5.15;;;;;;;29.46;35.86;96925.75;4939565;28;20340;-40
2021/06/12 07:12:46;;;;;;;9.73;4.63;;;;;;;29.46;36.14;96929.25;4941259;28;20576;-38
2021/06/12 07:15:11;;;;;;;7.15;4.88;;;;;;;29.43;36.21;96924.19;4937115;28;20125;-39
2021/06/12 07:17:37;;;;;;;9.93;4.47;;;;;;;29.42;36.35;96925.13;4941006;28;20027;-41
2021/06/12 07:20:05;;;;;;;9.98;5.20;;;;;;;29.41;36.42;96923.41;4939954;28;20043;-37
2021/06/12 07:22:31;;;;;;;9.48;4.43;;;;;;;29.38;36.82;96920.13;4949337;28;20050;-38
2021/06/12 07:24:56;;;;;;;12.98;4.80;;;;;;;29.38;36.77;96921.00;4950368;28;20027;-37
2021/06/12 07:27:22;;;;;;;12.75;5.13;;;;;;;29.37;36.95;96921.91;4939001;28;20023;-35
2021/06/12 07:29:47;;;;;;;7.38;4.97;;;;;;;29.37;36.83;96926.38;4941918;28;20027;-41
2021/06/12 07:32:13;;;;;;;8.43;4.72;;;;;;;29.35;37.20;96929.13;4944288;28;20076;-40
2021/06/12 07:34:38;;;;;;;12.93;5.10;;;;;;;29.34;37.08;96927.44;4943826;28;20027;-40
2021/06/12 07:37:04;;;;;;;14.25;5.10;;;;;;;29.33;37.19;96926.56;4945847;28;20030;-42
2021/06/12 07:39:29;;;;;;;9.82;4.90;;;;;;;29.32;37.35;96916.97;4942118;28;20041;-36
2021/06/12 07:41:55;;;;;;;14.05;4.97;;;;;;;29.32;37.36;96924.03;4942959;28;20038;-42
2021/06/12 07:44:20;;;;;;;18.70;4.68;;;;;;;29.32;37.63;96924.03;4946388;28;20054;-43
2021/06/12 07:46:46;;;;;;;11.00;4.40;;;;;;;29.33;37.64;96920.47;4947461;28;20976;-42
2021/06/12 07:49:11;;;;;;;11.77;4.50;;;;;;;29.34;37.53;96922.97;4942690;28;20071;-37
2021/06/12 07:51:38;;;;;;;10.95;4.35;;;;;;;29.33;37.71;96920.47;4950477;28;20038;-40
2021/06/12 07:54:03;;;;;;;7.75;4.50;;;;;;;29.33;37.70;96918.66;4939240;28;20774;-38
2021/06/12 07:56:29;;;;;;;7.95;4.10;;;;;;;29.34;37.66;96916.88;4940810;28;20038;-33
2021/06/12 07:58:54;;;;;;;8.07;3.38;;;;;;;29.33;36.78;96931.03;4942504;28;20026;-34
2021/06/12 08:01:20;;;;;;;7.07;2.70;;;;;;;29.30;35.34;96916.19;4946448;28;20050;-39
2021/06/12 08:03:45;;;;;;;6.70;2.67;;;;;;;29.27;35.05;96924.34;4970976;28;20038;-38
2021/06/12 08:06:11;;;;;;;3.63;2.58;;;;;;;29.25;34.20;96922.75;4941451;28;20521;-37
2021/06/12 08:08:36;;;;;;;5.75;2.80;;;;;;;29.22;34.03;96921.16;4943538;28;20039;-35
2021/06/12 08:11:02;;;;;;;4.88;2.33;;;;;;;29.20;33.74;96918.63;4941316;28;20034;-34
2021/06/12 08:13:27;;;;;;;3.55;2.13;;;;;;;29.18;33.19;96915.22;4950996;28;20057;-35
2021/06/12 08:15:53;;;;;;;11.50;2.60;;;;;;;29.16;33.45;96911.00;4948928;28;20030;-36
2021/06/12 08:18:18;;;;;;;11.70;2.40;;;;;;;29.15;33.63;96907.53;4953330;28;20558;-38
2021/06/12 08:20:43;;;;;;;4.20;2.30;;;;;;;29.15;33.04;96917.22;4950696;28;20038;-35
2021/06/12 08:23:09;;;;;;;3.75;2.35;;;;;;;29.15;32.54;96925.13;4950081;28;20109;-41
2021/06/12 08:25:34;;;;;;;8.43;2.72;;;;;;;29.12;32.59;96920.91;4951173;28;20031;-39
2021/06/12 08:28:02;;;;;;;5.15;2.50;;;;;;;29.12;32.20;96926.19;4946768;28;20058;-37
2021/06/12 08:30:29;;;;;;;3.63;2.30;;;;;;;29.10;31.88;96920.16;4944260;28;20113;-36
2021/06/12 08:32:54;;;;;;;5.18;2.60;;;;;;;29.09;32.20;96923.75;4948422;28;20035;-37
2021/06/12 08:35:20;;;;;;;6.90;2.65;;;;;;;29.06;31.73;96913.41;4946995;28;20041;-40
2021/06/12 08:37:45;;;;;;;5.18;2.50;;;;;;;29.00;31.34;96908.50;4949492;28;20535;-39
2021/06/12 08:40:12;;;;;;;4.70;2.28;;;;;;;29.03;31.35;96924.16;4947817;28;20026;-36
2021/06/12 08:42:37;;;;;;;4.72;2.15;;;;;;;29.02;31.09;96922.47;4937257;28;21061;-39
2021/06/12 08:45:03;;;;;;;3.80;2.28;;;;;;;29.01;30.64;96921.59;4952812;28;20034;-38
2021/06/12 08:47:31;;;;;;;3.80;2.10;;;;;;;29.02;30.56;96917.19;4948103;28;20027;-39
2021/06/12 08:49:57;;;;;;;7.78;2.22;;;;;;;29.05;30.72;96922.25;4952163;28;20081;-38
2021/06/12 08:52:22;;;;;;;3.65;2.28;;;;;;;29.11;30.48;96927.13;4946468;28;20031;-37
2021/06/12 08:54:48;;;;;;;7.60;2.40;;;;;;;29.20;30.09;96921.25;4943039;28;20038;-36
2021/06/12 08:57:13;;;;;;;4.22;2.10;;;;;;;29.32;30.01;96924.88;4951951;28;20102;-36
2021/06/12 08:59:39;;;;;;;3.67;1.85;;;;;;;29.44;29.26;96931.13;4947538;28;20030;-32
2021/06/12 09:02:05;;;;;;;3.75;1.90;;;;;;;29.57;29.56;96917.16;4946307;28;20042;-37
2021/06/12 09:04:32;;;;;;;2.85;1.88;;;;;;;29.71;29.34;96925.00;4947151;28;20114;-32
2021/06/12 09:07:16;;;;;;;3.10;1.85;;;;;;;29.85;29.43;96920.56;4944232;28;20120;-36
2021/06/12 09:09:41;;;;;;;3.03;1.85;;;;;;;29.97;29.85;96924.16;4946763;28;20095;-35
2021/06/12 09:12:07;;;;;;;4.00;2.00;;;;;;;30.08;29.57;96928.72;4946769;28;21219;-34
2021/06/12 09:14:33;;;;;;;5.50;1.80;;;;;;;30.18;29.35;96926.31;4930104;28;20054;-33
2021/06/12 09:16:58;;;;;;;6.78;2.03;;;;;;;30.29;29.02;96922.94;4965889;28;20033;-34
2021/06/12 09:19:23;;;;;;;11.50;2.00;;;;;;;30.37;29.04;96926.72;4946492;28;20570;-38
2021/06/12 09:21:55;;;;;;;5.35;2.13;;;;;;;30.46;29.04;96919.94;4938729;28;20457;-36
2021/06/12 09:24:26;;;;;;;4.05;2.15;;;;;;;30.55;29.11;96922.91;4935190;28;20057;-38
2021/06/12 09:26:59;;;;;;;3.35;2.20;;;;;;;30.63;29.22;96925.84;4936065;28;20711;-39
2021/06/12 09:29:33;;;;;;;7.43;1.90;;;;;;;30.71;29.39;96931.41;4944612;28;20055;-34
2021/06/12 09:31:59;;;;;;;5.00;2.00;;;;;;;30.77;29.42;96925.72;4937959;28;20039;-36
2021/06/12 09:34:25;;;;;;;5.20;1.63;;;;;;;30.83;29.54;96921.78;4941006;28;20117;-36
2021/06/12 09:36:51;;;;;;;2.17;1.80;;;;;;;30.88;29.52;96934.69;4942201;28;20018;-30
2021/06/12 09:39:20;;;;;;;6.32;1.70;;;;;;;30.92;29.52;96936.16;4942840;28;20038;-37
2021/06/12 09:41:47;;;;;;;3.40;1.90;;;;;;;30.94;29.62;96928.97;4934158;28;20055;-36
2021/06/12 09:44:28;;;;;;;7.88;2.03;;;;;;;30.96;29.76;96918.25;4950084;28;20037;-36
2021/06/12 09:46:53;;;;;;;3.58;1.98;;;;;;;30.95;29.63;96930.66;4949855;28;20767;-37
2021/06/12 09:49:19;;;;;;;6.45;2.17;;;;;;;30.94;29.79;96926.31;4949228;28;20041;-39
2021/06/12 09:52:10;;;;;;;6.35;2.45;;;;;;;30.91;30.14;96937.09;4938912;28;20038;-35
2021/06/12 09:54:36;;;;;;;8.32;2.67;;;;;;;30.88;30.04;96932.03;4942991;28;20081;-35
2021/06/12 09:57:01;;;;;;;4.25;2.28;;;;;;;30.85;30.25;96925.16;4953557;28;20026;-38
2021/06/12 09:59:27;;;;;;;5.00;2.35;;;;;;;30.81;30.10;96934.28;4952942;28;20058;-35
2021/06/12 10:01:52;;;;;;;6.10;2.40;;;;;;;30.78;30.47;96929.19;4946973;28;20050;-31
2021/06/12 10:04:18;;;;;;;4.63;1.90;;;;;;;30.73;30.37;96934.84;4956714;28;20030;-34
2021/06/12 10:06:44;;;;;;;4.03;2.20;;;;;;;30.70;30.75;96932.38;4952993;28;20445;-34
2021/06/12 10:09:09;;;;;;;7.90;2.53;;;;;;;30.64;30.83;96927.53;4950137;28;20108;-31
2021/06/12 10:11:35;;;;;;;6.07;2.40;;;;;;;30.61;30.84;96927.75;4948351;28;20042;-33
2021/06/12 10:14:01;;;;;;;4.85;2.40;;;;;;;30.57;31.02;96928.91;4953434;28;20034;-30
2021/06/12 10:16:27;;;;;;;4.72;2.22;;;;;;;30.52;31.04;96930.06;4950773;28;20023;-35
2021/06/12 10:18:53;;;;;;;5.68;2.53;;;;;;;30.50;31.40;96925.84;4940333;28;20479;-35
2021/06/12 10:21:19;;;;;;;4.90;2.50;;;;;;;30.46;31.49;96929.66;4960361;28;20677;-37
2021/06/12 10:23:45;;;;;;;3.10;2.08;;;;;;;30.41;31.52;96932.66;4979531;28;20026;-33
2021/06/12 10:26:12;;;;;;;4.18;2.30;;;;;;;30.38;31.63;96932.84;4952879;28;20965;-35
2021/06/12 10:28:37;;;;;;;3.70;2.17;;;;;;;30.36;31.57;96940.06;4951843;28;20034;-36
2021/06/12 10:31:17;;;;;;;4.07;2.10;;;;;;;30.32;31.58;96933.28;4952072;28;20442;-32
2021/06/12 10:33:47;;;;;;;3.03;2.17;;;;;;;30.28;31.74;96937.94;4947178;28;20126;-32
2021/06/12 10:36:20;;;;;;;4.10;2.33;;;;;;;30.25;31.77;96932.88;4953601;28;20030;-34
2021/06/12 10:38:46;;;;;;;4.47;2.60;;;;;;;30.18;32.08;96927.19;4955806;28;20030;-32
2021/06/12 10:41:22;;;;;;;4.22;2.10;;;;;;;30.20;32.19;96930.53;4952495;28;20647;-35
2021/06/12 10:43:50;;;;;;;2.95;2.15;;;;;;;30.17;32.47;96925.47;4939551;28;20042;-33
2021/06/12 10:46:19;;;;;;;6.22;2.50;;;;;;;30.16;32.34;96929.06;4937768;28;20626;-38
2021/06/12 10:48:48;;;;;;;4.82;2.30;;;;;;;30.14;32.26;96920.41;4940487;28;20468;-36
2021/06/12 10:51:34;;;;;;;4.05;2.22;;;;;;;30.12;32.47;96919.66;4939065;28;20031;-31
2021/06/12 10:54:08;;;;;;;3.45;2.20;;;;;;;30.10;32.68;96917.09;4945727;28;20038;-34
2021/06/12 10:56:35;;;;;;;8.40;2.40;;;;;;;30.10;32.60;96918.91;4934872;28;20149;-32
2021/06/12 10:59:01;;;;;;;3.95;2.17;;;;;;;30.08;32.64;96910.22;4925540;28;20398;-33
2021/06/12 11:01:26;;;;;;;5.88;2.47;;;;;;;30.07;32.79;96906.75;4931510;28;20047;-34
2021/06/12 11:09:17;;;;;;;16.20;2.70;;;;;;;30.06;33.10;96906.84;4939292;28;20042;-33
2021/06/12 11:11:50;;;;;;;18.73;3.00;;;;;;;30.04;33.49;96908.72;4934155;28;20073;-34
2021/06/12 11:14:21;;;;;;;15.48;3.00;;;;;;;30.03;33.26;96913.19;4941872;28;20827;-36
2021/06/12 11:19:42;;;;;;;12.43;2.55;;;;;;;30.03;33.55;96902.63;4945724;28;20023;-32
2021/06/12 11:22:28;;;;;;;14.05;2.33;;;;;;;30.03;33.79;96901.75;4951043;28;20051;-31
2021/06/12 11:25:09;;;;;;;24.15;3.15;;;;;;;30.02;33.95;96900.09;4941194;28;20019;-34
2021/06/12 11:27:45;;;;;;;11.75;2.45;;;;;;;30.01;33.85;96898.41;4970235;28;20173;-33
2021/06/12 11:30:20;;;;;;;19.27;2.80;;;;;;;29.99;33.66;96894.03;4939669;28;20030;-35
2021/06/12 11:32:52;;;;;;;21.27;3.22;;;;;;;29.98;33.80;96905.56;4945991;28;20116;-29
2021/06/12 11:35:39;;;;;;;13.20;2.65;;;;;;;29.99;33.90;96901.97;4947878;28;20031;-30
2021/06/12 11:38:09;;;;;;;12.82;2.58;;;;;;;29.97;33.95;96895.97;4946042;28;20133;-34